sensor_id;sensor_type;location;lat;lon;timestamp;temperature;humidity
54986;DHT22;40885;53.070;6.228;2022-08-21T00:01:08;14.10;99.90
54986;DHT22;40885;53.070;6.228;2022-08-21T00:03:35;14.00;99.90
54986;DHT22;40885;53.070;6.228;2022-08-21T00:06:01;14.00;99.90
54986;DHT22;40885;53.070;6.228;2022-08-21T00:08:26;14.00;99.90
54986;DHT22;40885;53.070;6.228;2022-08-21T00:10:52;13.90;99.90
54986;DHT22;40885;53.070;6.228;2022-08-21T00:13:18;13.90;99.90
54986;DHT22;40885;53.070;6.228;2022-08-21T00:15:46;13.90;99.90
54986;DHT22;40885;53.070;6.228;2022-08-21T00:18:12;13.90;99.90
54986;DHT22;40885;53.070;6.228;2022-08-21T00:20:39;13.90;99.90
54986;DHT22;40885;53.070;6.228;2022-08-21T00:23:05;13.90;99.90
54986;DHT22;40885;53.070;6.228;2022-08-21T00:25:32;13.80;99.90
54986;DHT22;40885;53.070;6.228;2022-08-21T00:27:58;13.80;99.90
54986;DHT22;40885;53.070;6.228;2022-08-21T00:30:26;13.80;99.90
54986;DHT22;40885;53.070;6.228;2022-08-21T00:32:53;13.80;99.90
54986;DHT22;40885;53.070;6.228;2022-08-21T00:35:23;13.80;99.90
54986;DHT22;40885;53.070;6.228;2022-08-21T00:37:49;13.80;99.90
54986;DHT22;40885;53.070;6.228;2022-08-21T00:40:18;13.70;99.90
54986;DHT22;40885;53.070;6.228;2022-08-21T00:42:45;13.70;99.90
54986;DHT22;40885;53.070;6.228;2022-08-21T00:45:11;13.70;99.90
54986;DHT22;40885;53.070;6.228;2022-08-21T00:47:37;13.70;99.90
54986;DHT22;40885;53.070;6.228;2022-08-21T00:50:06;13.70;99.90
54986;DHT22;40885;53.070;6.228;2022-08-21T00:52:34;13.70;99.90
54986;DHT22;40885;53.070;6.228;2022-08-21T00:55:02;13.60;99.90
54986;DHT22;40885;53.070;6.228;2022-08-21T00:57:45;13.60;99.90
54986;DHT22;40885;53.070;6.228;2022-08-21T01:00:17;13.60;99.90
54986;DHT22;40885;53.070;6.228;2022-08-21T01:02:44;13.60;99.90
54986;DHT22;40885;53.070;6.228;2022-08-21T01:05:10;13.60;99.90
54986;DHT22;40885;53.070;6.228;2022-08-21T01:07:36;13.60;99.90
54986;DHT22;40885;53.070;6.228;2022-08-21T01:10:05;13.60;99.90
54986;DHT22;40885;53.070;6.228;2022-08-21T01:12:32;13.60;99.90
54986;DHT22;40885;53.070;6.228;2022-08-21T01:14:57;13.60;99.90
54986;DHT22;40885;53.070;6.228;2022-08-21T01:17:24;13.60;99.90
54986;DHT22;40885;53.070;6.228;2022-08-21T01:19:50;13.60;99.90
54986;DHT22;40885;53.070;6.228;2022-08-21T01:22:16;13.60;99.90
54986;DHT22;40885;53.070;6.228;2022-08-21T01:24:42;13.60;99.90
54986;DHT22;40885;53.070;6.228;2022-08-21T01:27:08;13.60;99.90
54986;DHT22;40885;53.070;6.228;2022-08-21T01:29:54;13.60;99.90
54986;DHT22;40885;53.070;6.228;2022-08-21T01:32:21;13.70;99.90
54986;DHT22;40885;53.070;6.228;2022-08-21T01:34:48;13.60;99.90
54986;DHT22;40885;53.070;6.228;2022-08-21T01:37:15;13.60;99.90
54986;DHT22;40885;53.070;6.228;2022-08-21T01:39:42;13.60;99.90
54986;DHT22;40885;53.070;6.228;2022-08-21T01:42:08;13.60;99.90
54986;DHT22;40885;53.070;6.228;2022-08-21T01:44:34;13.60;99.90
54986;DHT22;40885;53.070;6.228;2022-08-21T01:47:03;13.60;99.90
54986;DHT22;40885;53.070;6.228;2022-08-21T01:49:29;13.60;99.90
54986;DHT22;40885;53.070;6.228;2022-08-21T01:51:55;13.60;99.90
54986;DHT22;40885;53.070;6.228;2022-08-21T01:54:21;13.60;99.90
54986;DHT22;40885;53.070;6.228;2022-08-21T01:56:49;13.60;99.90
54986;DHT22;40885;53.070;6.228;2022-08-21T01:59:16;13.60;99.90
54986;DHT22;40885;53.070;6.228;2022-08-21T02:01:42;13.60;99.90
54986;DHT22;40885;53.070;6.228;2022-08-21T02:04:09;13.60;99.90
54986;DHT22;40885;53.070;6.228;2022-08-21T02:06:35;13.70;99.90
54986;DHT22;40885;53.070;6.228;2022-08-21T02:09:05;13.60;99.90
54986;DHT22;40885;53.070;6.228;2022-08-21T02:11:32;13.70;99.90
54986;DHT22;40885;53.070;6.228;2022-08-21T02:13:58;13.60;99.90
54986;DHT22;40885;53.070;6.228;2022-08-21T02:16:24;13.60;99.90
54986;DHT22;40885;53.070;6.228;2022-08-21T02:18:50;13.70;99.90
54986;DHT22;40885;53.070;6.228;2022-08-21T02:21:16;13.70;99.90
54986;DHT22;40885;53.070;6.228;2022-08-21T02:23:41;13.70;99.90
54986;DHT22;40885;53.070;6.228;2022-08-21T02:26:08;13.80;99.90
54986;DHT22;40885;53.070;6.228;2022-08-21T02:28:35;13.80;99.90
54986;DHT22;40885;53.070;6.228;2022-08-21T02:31:02;13.80;99.90
54986;DHT22;40885;53.070;6.228;2022-08-21T02:33:29;13.80;99.90
54986;DHT22;40885;53.070;6.228;2022-08-21T02:35:56;13.80;99.90
54986;DHT22;40885;53.070;6.228;2022-08-21T02:38:25;13.90;99.90
54986;DHT22;40885;53.070;6.228;2022-08-21T02:40:55;13.90;99.90
54986;DHT22;40885;53.070;6.228;2022-08-21T02:43:23;13.90;99.90
54986;DHT22;40885;53.070;6.228;2022-08-21T02:45:50;13.90;99.90
54986;DHT22;40885;53.070;6.228;2022-08-21T02:48:18;13.90;99.90
54986;DHT22;40885;53.070;6.228;2022-08-21T02:50:52;13.90;99.90
54986;DHT22;40885;53.070;6.228;2022-08-21T02:53:18;13.90;99.90
54986;DHT22;40885;53.070;6.228;2022-08-21T02:55:45;13.90;99.90
54986;DHT22;40885;53.070;6.228;2022-08-21T02:58:13;13.90;99.90
54986;DHT22;40885;53.070;6.228;2022-08-21T03:00:40;13.90;99.90
54986;DHT22;40885;53.070;6.228;2022-08-21T03:03:06;13.90;99.90
54986;DHT22;40885;53.070;6.228;2022-08-21T03:05:33;13.90;99.90
54986;DHT22;40885;53.070;6.228;2022-08-21T03:08:01;13.90;99.90
54986;DHT22;40885;53.070;6.228;2022-08-21T03:10:28;14.00;99.90
54986;DHT22;40885;53.070;6.228;2022-08-21T03:12:56;13.90;99.90
54986;DHT22;40885;53.070;6.228;2022-08-21T03:15:23;14.00;99.90
54986;DHT22;40885;53.070;6.228;2022-08-21T03:17:50;14.00;99.90
54986;DHT22;40885;53.070;6.228;2022-08-21T03:20:20;14.00;99.90
54986;DHT22;40885;53.070;6.228;2022-08-21T03:22:47;14.00;99.90
54986;DHT22;40885;53.070;6.228;2022-08-21T03:25:13;14.00;99.90
54986;DHT22;40885;53.070;6.228;2022-08-21T03:27:38;14.00;99.90
54986;DHT22;40885;53.070;6.228;2022-08-21T03:30:06;14.00;99.90
54986;DHT22;40885;53.070;6.228;2022-08-21T03:32:33;14.00;99.90
54986;DHT22;40885;53.070;6.228;2022-08-21T03:34:59;14.00;99.90
54986;DHT22;40885;53.070;6.228;2022-08-21T03:37:26;14.00;99.90
54986;DHT22;40885;53.070;6.228;2022-08-21T03:39:52;14.00;99.90
54986;DHT22;40885;53.070;6.228;2022-08-21T03:42:18;14.00;99.90
54986;DHT22;40885;53.070;6.228;2022-08-21T03:44:43;14.10;99.90
54986;DHT22;40885;53.070;6.228;2022-08-21T03:47:09;14.10;99.90
54986;DHT22;40885;53.070;6.228;2022-08-21T03:49:36;14.10;99.90
54986;DHT22;40885;53.070;6.228;2022-08-21T03:52:03;14.10;99.90
54986;DHT22;40885;53.070;6.228;2022-08-21T03:54:29;14.20;99.90
54986;DHT22;40885;53.070;6.228;2022-08-21T03:56:56;14.10;99.90
54986;DHT22;40885;53.070;6.228;2022-08-21T03:59:22;14.20;99.90
54986;DHT22;40885;53.070;6.228;2022-08-21T04:01:56;14.20;99.90
54986;DHT22;40885;53.070;6.228;2022-08-21T04:04:22;14.20;99.90
54986;DHT22;40885;53.070;6.228;2022-08-21T04:06:48;14.20;99.90
54986;DHT22;40885;53.070;6.228;2022-08-21T04:09:16;14.20;99.90
54986;DHT22;40885;53.070;6.228;2022-08-21T04:11:42;14.20;99.90
54986;DHT22;40885;53.070;6.228;2022-08-21T04:14:08;14.20;99.90
54986;DHT22;40885;53.070;6.228;2022-08-21T04:16:34;14.30;99.90
54986;DHT22;40885;53.070;6.228;2022-08-21T04:19:00;14.20;99.90
54986;DHT22;40885;53.070;6.228;2022-08-21T04:21:27;14.20;99.90
54986;DHT22;40885;53.070;6.228;2022-08-21T04:23:56;14.20;99.90
54986;DHT22;40885;53.070;6.228;2022-08-21T04:26:22;14.20;99.90
54986;DHT22;40885;53.070;6.228;2022-08-21T04:28:48;14.20;99.90
54986;DHT22;40885;53.070;6.228;2022-08-21T04:31:14;14.20;99.90
54986;DHT22;40885;53.070;6.228;2022-08-21T04:33:40;14.20;99.90
54986;DHT22;40885;53.070;6.228;2022-08-21T04:36:06;14.20;99.90
54986;DHT22;40885;53.070;6.228;2022-08-21T04:38:32;14.20;99.90
54986;DHT22;40885;53.070;6.228;2022-08-21T04:40:58;14.20;99.90
54986;DHT22;40885;53.070;6.228;2022-08-21T04:43:24;14.20;99.90
54986;DHT22;40885;53.070;6.228;2022-08-21T04:45:50;14.20;99.90
54986;DHT22;40885;53.070;6.228;2022-08-21T04:48:21;14.20;99.90
54986;DHT22;40885;53.070;6.228;2022-08-21T04:53:34;14.10;99.90
54986;DHT22;40885;53.070;6.228;2022-08-21T04:56:07;14.10;99.90
54986;DHT22;40885;53.070;6.228;2022-08-21T04:58:35;14.10;99.90
54986;DHT22;40885;53.070;6.228;2022-08-21T05:01:05;14.20;99.90
54986;DHT22;40885;53.070;6.228;2022-08-21T05:03:34;14.20;99.90
54986;DHT22;40885;53.070;6.228;2022-08-21T05:06:04;14.20;99.90
54986;DHT22;40885;53.070;6.228;2022-08-21T05:08:31;14.20;99.90
54986;DHT22;40885;53.070;6.228;2022-08-21T05:10:57;14.30;99.90
54986;DHT22;40885;53.070;6.228;2022-08-21T05:13:23;14.30;99.90
54986;DHT22;40885;53.070;6.228;2022-08-21T05:15:49;14.30;99.90
54986;DHT22;40885;53.070;6.228;2022-08-21T05:18:15;14.40;99.90
54986;DHT22;40885;53.070;6.228;2022-08-21T05:20:40;14.40;99.90
54986;DHT22;40885;53.070;6.228;2022-08-21T05:23:09;14.40;99.90
54986;DHT22;40885;53.070;6.228;2022-08-21T05:25:35;14.50;99.90
54986;DHT22;40885;53.070;6.228;2022-08-21T05:28:01;14.50;99.90
54986;DHT22;40885;53.070;6.228;2022-08-21T05:30:27;14.50;99.90
54986;DHT22;40885;53.070;6.228;2022-08-21T05:33:01;14.60;99.90
54986;DHT22;40885;53.070;6.228;2022-08-21T05:35:28;14.60;99.90
54986;DHT22;40885;53.070;6.228;2022-08-21T05:37:54;14.70;99.90
54986;DHT22;40885;53.070;6.228;2022-08-21T05:40:20;14.70;99.90
54986;DHT22;40885;53.070;6.228;2022-08-21T05:42:46;14.80;99.90
54986;DHT22;40885;53.070;6.228;2022-08-21T05:45:12;14.80;99.90
54986;DHT22;40885;53.070;6.228;2022-08-21T05:47:38;14.90;99.90
54986;DHT22;40885;53.070;6.228;2022-08-21T05:50:05;15.00;99.90
54986;DHT22;40885;53.070;6.228;2022-08-21T05:52:31;15.10;99.90
54986;DHT22;40885;53.070;6.228;2022-08-21T05:54:57;15.10;99.90
54986;DHT22;40885;53.070;6.228;2022-08-21T05:57:23;15.20;99.90
54986;DHT22;40885;53.070;6.228;2022-08-21T05:59:49;15.30;99.90
54986;DHT22;40885;53.070;6.228;2022-08-21T06:02:18;15.40;99.90
54986;DHT22;40885;53.070;6.228;2022-08-21T06:04:44;15.50;99.90
54986;DHT22;40885;53.070;6.228;2022-08-21T06:07:10;15.50;99.90
54986;DHT22;40885;53.070;6.228;2022-08-21T06:09:36;15.60;99.90
54986;DHT22;40885;53.070;6.228;2022-08-21T06:12:09;15.60;99.90
54986;DHT22;40885;53.070;6.228;2022-08-21T06:14:35;15.70;99.90
54986;DHT22;40885;53.070;6.228;2022-08-21T06:17:07;15.80;99.90
54986;DHT22;40885;53.070;6.228;2022-08-21T06:19:34;15.90;99.90
54986;DHT22;40885;53.070;6.228;2022-08-21T06:22:00;15.90;99.90
54986;DHT22;40885;53.070;6.228;2022-08-21T06:24:26;16.00;99.90
54986;DHT22;40885;53.070;6.228;2022-08-21T06:26:53;16.10;99.90
54986;DHT22;40885;53.070;6.228;2022-08-21T06:29:19;16.20;99.90
54986;DHT22;40885;53.070;6.228;2022-08-21T06:31:46;16.20;99.90
54986;DHT22;40885;53.070;6.228;2022-08-21T06:34:12;16.30;99.90
54986;DHT22;40885;53.070;6.228;2022-08-21T06:36:38;16.40;99.90
54986;DHT22;40885;53.070;6.228;2022-08-21T06:39:04;16.50;99.90
54986;DHT22;40885;53.070;6.228;2022-08-21T06:41:31;16.60;99.90
54986;DHT22;40885;53.070;6.228;2022-08-21T06:43:57;16.60;99.90
54986;DHT22;40885;53.070;6.228;2022-08-21T06:46:24;16.70;99.90
54986;DHT22;40885;53.070;6.228;2022-08-21T06:48:50;16.80;99.90
54986;DHT22;40885;53.070;6.228;2022-08-21T06:51:16;16.90;99.90
54986;DHT22;40885;53.070;6.228;2022-08-21T06:53:44;16.90;99.90
54986;DHT22;40885;53.070;6.228;2022-08-21T06:56:09;17.00;99.90
54986;DHT22;40885;53.070;6.228;2022-08-21T06:58:35;17.10;99.90
54986;DHT22;40885;53.070;6.228;2022-08-21T07:01:01;17.20;99.90
54986;DHT22;40885;53.070;6.228;2022-08-21T07:03:36;17.30;99.90
54986;DHT22;40885;53.070;6.228;2022-08-21T07:06:04;17.40;99.90
54986;DHT22;40885;53.070;6.228;2022-08-21T07:08:30;17.50;99.90
54986;DHT22;40885;53.070;6.228;2022-08-21T07:10:57;17.60;99.90
54986;DHT22;40885;53.070;6.228;2022-08-21T07:13:23;17.70;99.90
54986;DHT22;40885;53.070;6.228;2022-08-21T07:15:49;17.70;99.90
54986;DHT22;40885;53.070;6.228;2022-08-21T07:18:15;17.80;99.90
54986;DHT22;40885;53.070;6.228;2022-08-21T07:20:42;17.90;99.90
54986;DHT22;40885;53.070;6.228;2022-08-21T07:23:22;18.00;99.90
54986;DHT22;40885;53.070;6.228;2022-08-21T07:25:48;18.10;99.90
54986;DHT22;40885;53.070;6.228;2022-08-21T07:28:14;18.10;99.90
54986;DHT22;40885;53.070;6.228;2022-08-21T07:30:40;18.10;99.90
54986;DHT22;40885;53.070;6.228;2022-08-21T07:33:05;18.20;99.90
54986;DHT22;40885;53.070;6.228;2022-08-21T07:35:31;18.20;99.90
54986;DHT22;40885;53.070;6.228;2022-08-21T07:37:58;18.30;99.90
54986;DHT22;40885;53.070;6.228;2022-08-21T07:40:24;18.40;99.90
54986;DHT22;40885;53.070;6.228;2022-08-21T07:42:50;18.50;99.90
54986;DHT22;40885;53.070;6.228;2022-08-21T07:45:19;18.60;99.90
54986;DHT22;40885;53.070;6.228;2022-08-21T07:47:45;18.70;99.90
54986;DHT22;40885;53.070;6.228;2022-08-21T07:50:12;18.70;99.90
54986;DHT22;40885;53.070;6.228;2022-08-21T07:52:39;18.80;99.90
54986;DHT22;40885;53.070;6.228;2022-08-21T07:55:07;18.90;99.90
54986;DHT22;40885;53.070;6.228;2022-08-21T07:57:33;19.00;99.90
54986;DHT22;40885;53.070;6.228;2022-08-21T07:59:59;19.00;99.90
54986;DHT22;40885;53.070;6.228;2022-08-21T08:02:26;19.00;99.90
54986;DHT22;40885;53.070;6.228;2022-08-21T08:04:52;19.10;99.90
54986;DHT22;40885;53.070;6.228;2022-08-21T08:07:18;19.10;99.90
54986;DHT22;40885;53.070;6.228;2022-08-21T08:09:45;19.10;99.90
54986;DHT22;40885;53.070;6.228;2022-08-21T08:12:11;19.10;99.90
54986;DHT22;40885;53.070;6.228;2022-08-21T08:14:37;19.20;99.90
54986;DHT22;40885;53.070;6.228;2022-08-21T08:17:03;19.20;99.90
54986;DHT22;40885;53.070;6.228;2022-08-21T08:19:29;19.30;99.90
54986;DHT22;40885;53.070;6.228;2022-08-21T08:21:56;19.30;99.90
54986;DHT22;40885;53.070;6.228;2022-08-21T08:24:21;19.40;99.90
54986;DHT22;40885;53.070;6.228;2022-08-21T08:26:47;19.40;99.90
54986;DHT22;40885;53.070;6.228;2022-08-21T08:29:13;19.40;99.90
54986;DHT22;40885;53.070;6.228;2022-08-21T08:31:39;19.40;99.90
54986;DHT22;40885;53.070;6.228;2022-08-21T08:34:05;19.50;99.90
54986;DHT22;40885;53.070;6.228;2022-08-21T08:36:33;19.50;99.90
54986;DHT22;40885;53.070;6.228;2022-08-21T08:38:59;19.60;99.90
54986;DHT22;40885;53.070;6.228;2022-08-21T08:41:26;19.60;99.90
54986;DHT22;40885;53.070;6.228;2022-08-21T08:43:54;19.70;99.90
54986;DHT22;40885;53.070;6.228;2022-08-21T08:46:40;19.80;99.90
54986;DHT22;40885;53.070;6.228;2022-08-21T08:49:30;19.90;99.90
54986;DHT22;40885;53.070;6.228;2022-08-21T08:52:01;19.90;99.90
54986;DHT22;40885;53.070;6.228;2022-08-21T08:54:31;19.90;99.90
54986;DHT22;40885;53.070;6.228;2022-08-21T08:57:03;19.90;99.90
54986;DHT22;40885;53.070;6.228;2022-08-21T08:59:41;19.90;99.90
54986;DHT22;40885;53.070;6.228;2022-08-21T09:02:13;19.90;99.90
54986;DHT22;40885;53.070;6.228;2022-08-21T09:04:40;20.00;99.90
54986;DHT22;40885;53.070;6.228;2022-08-21T09:26:20;20.80;99.90
54986;DHT22;40885;53.070;6.228;2022-08-21T09:28:56;20.90;99.90
54986;DHT22;40885;53.070;6.228;2022-08-21T09:31:29;21.00;99.90
54986;DHT22;40885;53.070;6.228;2022-08-21T09:34:08;21.00;99.90
54986;DHT22;40885;53.070;6.228;2022-08-21T09:36:41;21.00;99.90
54986;DHT22;40885;53.070;6.228;2022-08-21T09:39:10;21.00;99.90
54986;DHT22;40885;53.070;6.228;2022-08-21T09:41:37;21.00;99.90
54986;DHT22;40885;53.070;6.228;2022-08-21T09:44:05;21.10;99.90
54986;DHT22;40885;53.070;6.228;2022-08-21T09:46:31;21.20;99.90
54986;DHT22;40885;53.070;6.228;2022-08-21T09:49:03;21.30;99.90
54986;DHT22;40885;53.070;6.228;2022-08-21T09:51:30;21.40;99.90
54986;DHT22;40885;53.070;6.228;2022-08-21T10:01:53;21.80;99.90
54986;DHT22;40885;53.070;6.228;2022-08-21T10:04:22;22.00;99.90
54986;DHT22;40885;53.070;6.228;2022-08-21T10:06:48;22.20;99.90
54986;DHT22;40885;53.070;6.228;2022-08-21T10:09:17;22.20;99.90
54986;DHT22;40885;53.070;6.228;2022-08-21T10:12:06;22.20;99.90
54986;DHT22;40885;53.070;6.228;2022-08-21T10:17:32;22.10;99.90
54986;DHT22;40885;53.070;6.228;2022-08-21T10:20:23;22.10;99.90
54986;DHT22;40885;53.070;6.228;2022-08-21T10:25:55;22.00;99.90
54986;DHT22;40885;53.070;6.228;2022-08-21T10:33:51;22.00;99.90
54986;DHT22;40885;53.070;6.228;2022-08-21T10:36:39;22.10;99.90
54986;DHT22;40885;53.070;6.228;2022-08-21T10:41:58;22.20;99.90
54986;DHT22;40885;53.070;6.228;2022-08-21T10:47:20;22.30;99.90
54986;DHT22;40885;53.070;6.228;2022-08-21T10:50:17;22.30;99.90
54986;DHT22;40885;53.070;6.228;2022-08-21T11:03:17;21.70;99.90
54986;DHT22;40885;53.070;6.228;2022-08-21T11:05:54;21.50;99.90
54986;DHT22;40885;53.070;6.228;2022-08-21T11:08:49;21.30;99.90
54986;DHT22;40885;53.070;6.228;2022-08-21T11:11:31;21.30;99.90
54986;DHT22;40885;53.070;6.228;2022-08-21T11:16:56;21.30;99.90
54986;DHT22;40885;53.070;6.228;2022-08-21T11:19:48;21.40;99.90
54986;DHT22;40885;53.070;6.228;2022-08-21T11:25:07;21.60;99.90
54986;DHT22;40885;53.070;6.228;2022-08-21T11:27:42;21.60;99.90
54986;DHT22;40885;53.070;6.228;2022-08-21T11:30:10;21.60;99.90
54986;DHT22;40885;53.070;6.228;2022-08-21T11:38:35;21.90;99.90
54986;DHT22;40885;53.070;6.228;2022-08-21T11:44:04;22.20;99.90
54986;DHT22;40885;53.070;6.228;2022-08-21T11:46:44;22.30;99.90
54986;DHT22;40885;53.070;6.228;2022-08-21T11:49:22;22.30;99.90
54986;DHT22;40885;53.070;6.228;2022-08-21T11:52:07;22.30;99.90
54986;DHT22;40885;53.070;6.228;2022-08-21T11:54:52;22.20;99.90
54986;DHT22;40885;53.070;6.228;2022-08-21T11:57:30;22.10;99.90
54986;DHT22;40885;53.070;6.228;2022-08-21T12:00:13;22.00;99.90
54986;DHT22;40885;53.070;6.228;2022-08-21T12:02:46;21.80;99.90
54986;DHT22;40885;53.070;6.228;2022-08-21T12:05:28;21.80;99.90
54986;DHT22;40885;53.070;6.228;2022-08-21T12:08:32;21.70;99.90
54986;DHT22;40885;53.070;6.228;2022-08-21T12:11:06;21.60;99.90
54986;DHT22;40885;53.070;6.228;2022-08-21T12:13:38;21.60;99.90
54986;DHT22;40885;53.070;6.228;2022-08-21T12:16:16;21.60;99.90
54986;DHT22;40885;53.070;6.228;2022-08-21T12:19:07;21.60;99.90
54986;DHT22;40885;53.070;6.228;2022-08-21T12:21:47;21.60;99.90
54986;DHT22;40885;53.070;6.228;2022-08-21T12:26:56;21.60;99.90
54986;DHT22;40885;53.070;6.228;2022-08-21T12:29:28;21.70;99.90
54986;DHT22;40885;53.070;6.228;2022-08-21T12:31:59;21.70;99.90
54986;DHT22;40885;53.070;6.228;2022-08-21T12:34:32;21.70;99.90
54986;DHT22;40885;53.070;6.228;2022-08-21T12:37:33;21.70;99.90
54986;DHT22;40885;53.070;6.228;2022-08-21T12:40:03;21.70;99.90
54986;DHT22;40885;53.070;6.228;2022-08-21T12:42:39;21.70;99.90
54986;DHT22;40885;53.070;6.228;2022-08-21T12:45:30;21.60;99.90
54986;DHT22;40885;53.070;6.228;2022-08-21T12:48:00;21.50;99.90
54986;DHT22;40885;53.070;6.228;2022-08-21T12:50:56;21.40;99.90
54986;DHT22;40885;53.070;6.228;2022-08-21T12:55:50;21.30;99.90
54986;DHT22;40885;53.070;6.228;2022-08-21T12:58:23;21.30;99.90
54986;DHT22;40885;53.070;6.228;2022-08-21T13:00:56;21.20;99.90
54986;DHT22;40885;53.070;6.228;2022-08-21T13:03:23;21.30;99.90
54986;DHT22;40885;53.070;6.228;2022-08-21T13:05:50;21.30;99.90
54986;DHT22;40885;53.070;6.228;2022-08-21T13:08:20;21.30;99.90
54986;DHT22;40885;53.070;6.228;2022-08-21T13:10:49;21.40;99.90
54986;DHT22;40885;53.070;6.228;2022-08-21T13:13:23;21.50;99.90
54986;DHT22;40885;53.070;6.228;2022-08-21T13:15:59;21.60;99.90
54986;DHT22;40885;53.070;6.228;2022-08-21T13:18:28;21.70;99.90
54986;DHT22;40885;53.070;6.228;2022-08-21T13:21:13;21.80;99.90
54986;DHT22;40885;53.070;6.228;2022-08-21T13:23:40;21.80;99.90
54986;DHT22;40885;53.070;6.228;2022-08-21T13:26:16;21.80;99.90
54986;DHT22;40885;53.070;6.228;2022-08-21T13:28:42;21.90;99.90
54986;DHT22;40885;53.070;6.228;2022-08-21T13:31:10;22.00;99.90
54986;DHT22;40885;53.070;6.228;2022-08-21T13:33:37;22.00;99.90
54986;DHT22;40885;53.070;6.228;2022-08-21T13:36:05;22.10;99.90
54986;DHT22;40885;53.070;6.228;2022-08-21T13:38:35;22.20;99.90
54986;DHT22;40885;53.070;6.228;2022-08-21T13:43:35;22.50;99.90
54986;DHT22;40885;53.070;6.228;2022-08-21T13:46:08;22.60;99.90
54986;DHT22;40885;53.070;6.228;2022-08-21T13:48:34;22.70;99.90
54986;DHT22;40885;53.070;6.228;2022-08-21T13:51:02;22.70;99.90
54986;DHT22;40885;53.070;6.228;2022-08-21T13:53:34;22.90;99.90
54986;DHT22;40885;53.070;6.228;2022-08-21T13:56:02;23.00;99.90
54986;DHT22;40885;53.070;6.228;2022-08-21T13:58:44;23.00;99.90
54986;DHT22;40885;53.070;6.228;2022-08-21T14:01:23;22.90;99.90
54986;DHT22;40885;53.070;6.228;2022-08-21T14:03:53;22.70;99.90
54986;DHT22;40885;53.070;6.228;2022-08-21T14:06:24;22.70;99.90
54986;DHT22;40885;53.070;6.228;2022-08-21T14:11:18;22.80;99.90
54986;DHT22;40885;53.070;6.228;2022-08-21T14:13:50;22.80;99.90
54986;DHT22;40885;53.070;6.228;2022-08-21T14:16:22;22.90;99.90
54986;DHT22;40885;53.070;6.228;2022-08-21T14:19:12;23.00;99.90
54986;DHT22;40885;53.070;6.228;2022-08-21T14:21:43;23.10;99.90
54986;DHT22;40885;53.070;6.228;2022-08-21T14:26:42;23.20;99.90
54986;DHT22;40885;53.070;6.228;2022-08-21T14:29:09;23.10;99.90
54986;DHT22;40885;53.070;6.228;2022-08-21T14:31:35;22.90;99.90
54986;DHT22;40885;53.070;6.228;2022-08-21T14:34:01;22.90;99.90
54986;DHT22;40885;53.070;6.228;2022-08-21T14:36:27;22.90;99.90
54986;DHT22;40885;53.070;6.228;2022-08-21T14:38:53;23.00;99.90
54986;DHT22;40885;53.070;6.228;2022-08-21T14:41:22;23.00;99.90
54986;DHT22;40885;53.070;6.228;2022-08-21T14:43:49;23.10;99.90
54986;DHT22;40885;53.070;6.228;2022-08-21T14:46:25;23.20;99.90
54986;DHT22;40885;53.070;6.228;2022-08-21T14:48:52;23.20;99.90
54986;DHT22;40885;53.070;6.228;2022-08-21T14:51:18;23.20;99.90
54986;DHT22;40885;53.070;6.228;2022-08-21T14:53:44;23.30;99.90
54986;DHT22;40885;53.070;6.228;2022-08-21T14:56:11;23.20;99.90
54986;DHT22;40885;53.070;6.228;2022-08-21T14:58:41;23.10;99.90
54986;DHT22;40885;53.070;6.228;2022-08-21T15:01:09;23.00;99.90
54986;DHT22;40885;53.070;6.228;2022-08-21T15:03:36;22.90;99.90
54986;DHT22;40885;53.070;6.228;2022-08-21T15:06:04;22.90;99.90
54986;DHT22;40885;53.070;6.228;2022-08-21T15:08:30;22.90;99.90
54986;DHT22;40885;53.070;6.228;2022-08-21T15:10:56;23.00;99.90
54986;DHT22;40885;53.070;6.228;2022-08-21T15:13:22;23.00;99.90
54986;DHT22;40885;53.070;6.228;2022-08-21T15:15:49;23.00;99.90
54986;DHT22;40885;53.070;6.228;2022-08-21T15:18:21;22.90;99.90
54986;DHT22;40885;53.070;6.228;2022-08-21T15:20:48;22.90;99.90
54986;DHT22;40885;53.070;6.228;2022-08-21T15:23:13;22.90;99.90
54986;DHT22;40885;53.070;6.228;2022-08-21T15:25:45;22.90;99.90
54986;DHT22;40885;53.070;6.228;2022-08-21T15:28:12;22.90;99.90
54986;DHT22;40885;53.070;6.228;2022-08-21T15:30:39;23.00;99.90
54986;DHT22;40885;53.070;6.228;2022-08-21T15:33:05;22.90;99.90
54986;DHT22;40885;53.070;6.228;2022-08-21T15:35:32;22.90;99.90
54986;DHT22;40885;53.070;6.228;2022-08-21T15:37:58;22.90;99.90
54986;DHT22;40885;53.070;6.228;2022-08-21T15:40:24;22.90;99.90
54986;DHT22;40885;53.070;6.228;2022-08-21T15:42:53;22.80;99.90
54986;DHT22;40885;53.070;6.228;2022-08-21T15:45:21;22.80;99.90
54986;DHT22;40885;53.070;6.228;2022-08-21T15:47:48;22.70;99.90
54986;DHT22;40885;53.070;6.228;2022-08-21T15:50:15;22.70;99.90
54986;DHT22;40885;53.070;6.228;2022-08-21T15:52:41;22.70;99.90
54986;DHT22;40885;53.070;6.228;2022-08-21T15:55:07;22.70;99.90
54986;DHT22;40885;53.070;6.228;2022-08-21T15:57:35;22.60;99.90
54986;DHT22;40885;53.070;6.228;2022-08-21T16:00:06;22.50;99.90
54986;DHT22;40885;53.070;6.228;2022-08-21T16:02:37;22.50;99.90
54986;DHT22;40885;53.070;6.228;2022-08-21T16:05:04;22.40;99.90
54986;DHT22;40885;53.070;6.228;2022-08-21T16:07:30;22.40;99.90
54986;DHT22;40885;53.070;6.228;2022-08-21T16:09:55;22.40;99.90
54986;DHT22;40885;53.070;6.228;2022-08-21T16:12:25;22.40;99.90
54986;DHT22;40885;53.070;6.228;2022-08-21T16:14:52;22.30;99.90
54986;DHT22;40885;53.070;6.228;2022-08-21T16:17:27;22.30;99.90
54986;DHT22;40885;53.070;6.228;2022-08-21T16:19:54;22.30;99.90
54986;DHT22;40885;53.070;6.228;2022-08-21T16:22:20;22.20;99.90
54986;DHT22;40885;53.070;6.228;2022-08-21T16:24:45;22.20;99.90
54986;DHT22;40885;53.070;6.228;2022-08-21T16:27:11;22.10;99.90
54986;DHT22;40885;53.070;6.228;2022-08-21T16:29:39;22.10;99.90
54986;DHT22;40885;53.070;6.228;2022-08-21T16:32:06;22.10;99.90
54986;DHT22;40885;53.070;6.228;2022-08-21T16:34:32;22.10;99.90
54986;DHT22;40885;53.070;6.228;2022-08-21T16:36:58;22.00;99.90
54986;DHT22;40885;53.070;6.228;2022-08-21T16:39:24;22.00;99.90
54986;DHT22;40885;53.070;6.228;2022-08-21T16:41:50;21.90;99.90
54986;DHT22;40885;53.070;6.228;2022-08-21T16:44:17;21.90;99.90
54986;DHT22;40885;53.070;6.228;2022-08-21T16:46:44;21.90;99.90
54986;DHT22;40885;53.070;6.228;2022-08-21T16:49:10;21.90;99.90
54986;DHT22;40885;53.070;6.228;2022-08-21T16:51:36;21.80;99.90
54986;DHT22;40885;53.070;6.228;2022-08-21T16:54:02;21.70;99.90
54986;DHT22;40885;53.070;6.228;2022-08-21T16:56:29;21.70;99.90
54986;DHT22;40885;53.070;6.228;2022-08-21T16:58:56;21.70;99.90
54986;DHT22;40885;53.070;6.228;2022-08-21T17:01:25;21.60;99.90
54986;DHT22;40885;53.070;6.228;2022-08-21T17:03:52;21.50;99.90
54986;DHT22;40885;53.070;6.228;2022-08-21T17:06:20;21.40;99.90